MVV weather

Megève Airport
Verdun, Rhône Alpes, France

Public forecast

Using degrees Celsius for public forecast. Weather courtesy of forecast.io.

METAR (pilot weather report)

Closest report is Annecy-Haute-Savoie-Mont Blanc Airport, 23.8 nm (44.0 km) WNW. Retrieved 2019/07/21 20:30 UTC (26 minutes ago):

LFLP 212030Z AUTO 05003KT CAVOK 23/17 Q1023

TAF (pilot weather forecast)

Forecast is more than 6 hours old.

Closest forecast is Annecy-Haute-Savoie-Mont Blanc Airport, 23.8 nm (44.0 km) WNW. Retrieved 2019/07/21 09:00 UTC (12 hours ago):

TAF LFLP 210800Z 2109/2209 30005KT CAVOK